Time;durP1;ratioP1;P1;durP2;ratioP2;P2;SDS_P1;SDS_P2;PMS_P1;PMS_P2;Temp;Humidity;BMP_temperature;BMP_pressure;BME280_temperature;BME280_humidity;BME280_pressure;Samples;Min_cycle;Max_cycle;Signal;HPM_P1;HPM_P2
2024/03/17 10:03:34;;;;;;;;;28.25;27.00;;;;;;;;5087838;27;13564;-72
2024/03/17 10:06:00;;;;;;;;;25.25;24.50;;;;;;;;5046063;28;11510;-70
2024/03/17 10:08:25;;;;;;;;;24.50;23.00;;;;;;;;5046022;28;11276;-73
2024/03/17 10:10:52;;;;;;;;;30.75;23.25;;;;;;;;5039113;28;8843;-68
2024/03/17 10:13:18;;;;;;;;;22.50;22.25;;;;;;;;5046922;28;8812;-72
2024/03/17 10:15:50;;;;;;;;;28.00;23.25;;;;;;;;5046845;28;11782;-71
2024/03/17 10:18:22;;;;;;;;;25.75;24.50;;;;;;;;5043670;28;8846;-71
2024/03/17 10:20:52;;;;;;;;;21.25;21.00;;;;;;;;5047245;28;11083;-72
2024/03/17 10:23:19;;;;;;;;;27.50;26.00;;;;;;;;5046719;28;11013;-71
2024/03/17 10:25:44;;;;;;;;;18.00;17.75;;;;;;;;5046685;28;11272;-71
2024/03/17 10:28:11;;;;;;;;;23.75;22.50;;;;;;;;5045027;28;11024;-71
2024/03/17 10:30:37;;;;;;;;;29.00;27.25;;;;;;;;5046350;28;8822;-72
2024/03/17 10:33:02;;;;;;;;;24.25;23.25;;;;;;;;5046409;28;11499;-74
2024/03/17 10:35:34;;;;;;;;;29.50;27.50;;;;;;;;5045450;28;8835;-72
2024/03/17 10:38:00;;;;;;;;;28.50;25.75;;;;;;;;5045312;28;8898;-69
2024/03/17 10:40:26;;;;;;;;;34.25;31.50;;;;;;;;5043420;28;11489;-77
2024/03/17 10:42:52;;;;;;;;;30.00;27.75;;;;;;;;5046239;28;11525;-71
2024/03/17 10:45:17;;;;;;;;;29.00;26.25;;;;;;;;5044998;28;11537;-71
2024/03/17 10:47:50;;;;;;;;;34.00;32.00;;;;;;;;5045330;28;8823;-71
2024/03/17 10:50:23;;;;;;;;;29.75;26.25;;;;;;;;5046162;28;8819;-73
2024/03/17 10:52:52;;;;;;;;;34.75;29.50;;;;;;;;5045808;28;11532;-70
2024/03/17 10:55:24;;;;;;;;;105.25;94.25;;;;;;;;5046240;28;11543;-72
2024/03/17 10:57:53;;;;;;;;;43.75;36.25;;;;;;;;5047719;28;8833;-71
2024/03/17 11:00:22;;;;;;;;;46.25;38.25;;;;;;;;5045656;28;11591;-71
2024/03/17 11:02:48;;;;;;;;;35.75;33.00;;;;;;;;5045157;28;11613;-72
2024/03/17 11:05:13;;;;;;;;;35.00;33.00;;;;;;;;5045840;28;11553;-70
2024/03/17 11:07:45;;;;;;;;;32.25;31.50;;;;;;;;5044749;28;11667;-70
2024/03/17 11:10:14;;;;;;;;;36.00;32.00;;;;;;;;5047749;28;8831;-70
2024/03/17 11:12:47;;;;;;;;;26.25;22.75;;;;;;;;5042497;28;11600;-70
2024/03/17 11:15:18;;;;;;;;;33.50;29.00;;;;;;;;5027260;28;11542;-70
2024/03/17 11:17:44;;;;;;;;;32.25;31.25;;;;;;;;5031486;28;11561;-71
2024/03/17 11:20:19;;;;;;;;;34.25;31.00;;;;;;;;5030192;28;11479;-73
2024/03/17 11:22:45;;;;;;;;;41.75;35.50;;;;;;;;5030570;28;9013;-70
2024/03/17 11:25:25;;;;;;;;;35.25;33.00;;;;;;;;5019629;28;11647;-70
2024/03/17 11:27:50;;;;;;;;;36.50;32.75;;;;;;;;4991922;28;8819;-70
2024/03/17 11:30:34;;;;;;;;;37.00;33.75;;;;;;;;4991858;28;11654;-70
2024/03/17 11:32:59;;;;;;;;;32.00;30.75;;;;;;;;4992540;28;8811;-72
2024/03/17 11:35:25;;;;;;;;;43.50;36.25;;;;;;;;4992839;28;12331;-72
2024/03/17 11:37:52;;;;;;;;;36.50;34.75;;;;;;;;4990386;28;8834;-72
2024/03/17 11:40:24;;;;;;;;;34.00;33.00;;;;;;;;4991673;28;9281;-72
2024/03/17 11:43:03;;;;;;;;;50.75;42.00;;;;;;;;4992262;28;11620;-72
2024/03/17 11:45:28;;;;;;;;;39.50;35.00;;;;;;;;4992654;28;11604;-71
2024/03/17 11:47:53;;;;;;;;;35.75;34.75;;;;;;;;4990672;28;11550;-71
2024/03/17 11:50:19;;;;;;;;;38.50;34.00;;;;;;;;4991778;28;8889;-72
2024/03/17 11:52:45;;;;;;;;;46.75;36.50;;;;;;;;4992380;28;8846;-73
2024/03/17 11:55:17;;;;;;;;;40.75;34.75;;;;;;;;4992504;28;8830;-68
2024/03/17 11:57:45;;;;;;;;;41.50;33.25;;;;;;;;4991846;28;11674;-69
2024/03/17 12:00:21;;;;;;;;;38.75;33.75;;;;;;;;4991560;28;11556;-71
2024/03/17 12:02:48;;;;;;;;;34.25;33.00;;;;;;;;4991805;28;11562;-72
2024/03/17 12:05:13;;;;;;;;;36.75;33.00;;;;;;;;4992313;28;11527;-73
2024/03/17 12:07:42;;;;;;;;;42.25;33.75;;;;;;;;4991354;28;11587;-72
2024/03/17 12:10:10;;;;;;;;;46.75;37.00;;;;;;;;4991178;28;8795;-73
2024/03/17 12:12:35;;;;;;;;;39.50;36.25;;;;;;;;4991864;28;11616;-72
2024/03/17 12:15:01;;;;;;;;;34.00;31.75;;;;;;;;4992162;28;12276;-72
2024/03/17 12:17:26;;;;;;;;;35.50;33.00;;;;;;;;4992064;28;8811;-72
2024/03/17 12:19:52;;;;;;;;;38.50;33.75;;;;;;;;4989771;28;8791;-72
2024/03/17 12:22:24;;;;;;;;;35.75;32.25;;;;;;;;4991804;28;8870;-71
2024/03/17 12:24:51;;;;;;;;;38.75;35.00;;;;;;;;4991567;28;8884;-73
2024/03/17 12:27:20;;;;;;;;;42.75;36.00;;;;;;;;4992032;28;11548;-72
2024/03/17 12:29:47;;;;;;;;;39.00;34.50;;;;;;;;4990043;28;11544;-73
2024/03/17 12:32:16;;;;;;;;;40.50;33.75;;;;;;;;4991534;28;11576;-71
2024/03/17 12:34:42;;;;;;;;;39.75;33.75;;;;;;;;4991502;28;11585;-70
2024/03/17 12:37:08;;;;;;;;;39.75;35.00;;;;;;;;4991812;28;12354;-70
2024/03/17 12:39:33;;;;;;;;;47.25;37.25;;;;;;;;4992331;28;11554;-72
2024/03/17 12:42:06;;;;;;;;;47.00;37.50;;;;;;;;4992359;28;9517;-73
2024/03/17 12:44:32;;;;;;;;;45.50;38.50;;;;;;;;4991676;28;8795;-73
2024/03/17 12:47:01;;;;;;;;;63.25;51.00;;;;;;;;4991498;28;12265;-74
2024/03/17 12:49:27;;;;;;;;;61.50;50.00;;;;;;;;4989393;28;8787;-72
2024/03/17 12:51:53;;;;;;;;;63.75;51.00;;;;;;;;4991272;28;11657;-72
2024/03/17 12:54:25;;;;;;;;;53.00;43.00;;;;;;;;4991465;28;8829;-71
2024/03/17 13:02:27;;;;;;;;;47.00;40.00;;;;;;;;4991079;28;11589;-69
2024/03/17 13:05:06;;;;;;;;;44.25;36.00;;;;;;;;4990870;28;11587;-68
2024/03/17 13:07:31;;;;;;;;;34.25;30.25;;;;;;;;4986047;28;11552;-70
2024/03/17 13:09:56;;;;;;;;;37.50;34.75;;;;;;;;4989716;28;11564;-67
2024/03/17 13:12:21;;;;;;;;;40.00;34.50;;;;;;;;4990809;28;8834;-68
2024/03/17 13:14:47;;;;;;;;;44.00;37.25;;;;;;;;4990729;28;9365;-68
2024/03/17 13:17:16;;;;;;;;;39.50;33.75;;;;;;;;4990760;28;8907;-68
2024/03/17 13:19:42;;;;;;;;;36.25;34.00;;;;;;;;4988692;28;8904;-70
2024/03/17 13:22:09;;;;;;;;;34.50;32.75;;;;;;;;4990692;28;11562;-68
2024/03/17 13:24:34;;;;;;;;;31.00;31.00;;;;;;;;4990407;28;11605;-67
2024/03/17 13:27:05;;;;;;;;;41.25;37.25;;;;;;;;4990658;28;11536;-68
2024/03/17 13:29:30;;;;;;;;;45.50;39.25;;;;;;;;4988928;28;8795;-68
2024/03/17 13:31:55;;;;;;;;;43.25;36.25;;;;;;;;4989086;28;11588;-68
2024/03/17 13:34:20;;;;;;;;;42.25;35.50;;;;;;;;4990387;28;8807;-68
2024/03/17 14:44:39;;;;;;;;;30.75;29.00;;;;;;;;5113584;27;13430;-67
2024/03/17 14:47:04;;;;;;;;;36.00;30.25;;;;;;;;5108310;27;11532;-65
2024/03/17 14:49:30;;;;;;;;;35.50;32.75;;;;;;;;5104924;28;8858;-66
2024/03/17 14:51:56;;;;;;;;;29.75;28.75;;;;;;;;5107560;28;8834;-65
2024/03/17 14:54:21;;;;;;;;;29.25;24.00;;;;;;;;5126551;27;9534;-66
2024/03/17 14:56:47;;;;;;;;;21.25;21.00;;;;;;;;5127427;27;11453;-65
2024/03/17 14:59:12;;;;;;;;;24.75;19.75;;;;;;;;5126507;27;8804;-66
2024/03/17 15:01:37;;;;;;;;;32.25;27.00;;;;;;;;5127940;27;8836;-67
2024/03/17 15:04:03;;;;;;;;;29.00;24.50;;;;;;;;5127935;27;9618;-68
2024/03/17 15:06:28;;;;;;;;;29.25;27.25;;;;;;;;5108977;28;8846;-67
2024/03/17 15:08:53;;;;;;;;;25.25;23.25;;;;;;;;5109000;27;8789;-67
2024/03/17 15:11:19;;;;;;;;;22.50;21.75;;;;;;;;5127829;27;8857;-67
2024/03/17 15:13:45;;;;;;;;;27.25;22.00;;;;;;;;5127971;27;8793;-66
2024/03/17 15:16:11;;;;;;;;;22.75;22.75;;;;;;;;5127707;27;8805;-67
2024/03/17 15:18:37;;;;;;;;;27.50;21.75;;;;;;;;5121428;28;11433;-66
2024/03/17 15:21:05;;;;;;;;;24.00;20.25;;;;;;;;5106996;28;11319;-66
2024/03/17 15:23:33;;;;;;;;;28.00;25.25;;;;;;;;5086739;28;11102;-66
2024/03/17 15:25:59;;;;;;;;;24.00;22.75;;;;;;;;5086791;28;11274;-66
2024/03/17 15:28:24;;;;;;;;;25.00;23.00;;;;;;;;5105235;28;11245;-66
2024/03/17 15:30:49;;;;;;;;;23.50;22.00;;;;;;;;5101850;28;8841;-66
2024/03/17 15:33:15;;;;;;;;;23.75;23.00;;;;;;;;5096543;28;8803;-65
2024/03/17 15:35:43;;;;;;;;;19.50;19.25;;;;;;;;5086561;28;8906;-64
2024/03/17 15:38:09;;;;;;;;;19.00;18.50;;;;;;;;5083747;28;8896;-70
2024/03/17 15:40:35;;;;;;;;;21.00;20.00;;;;;;;;5086571;28;10872;-70
2024/03/17 15:43:00;;;;;;;;;37.00;31.25;;;;;;;;5088493;28;11109;-71
2024/03/17 15:45:26;;;;;;;;;25.25;22.25;;;;;;;;5087066;28;11505;-72
2024/03/17 15:47:53;;;;;;;;;22.25;19.00;;;;;;;;5088584;28;8774;-71
2024/03/17 15:50:18;;;;;;;;;23.25;19.50;;;;;;;;5105782;28;11019;-73
2024/03/17 15:52:44;;;;;;;;;10.50;7.75;;;;;;;;5106421;28;11823;-69
2024/03/17 15:55:10;;;;;;;;;21.25;19.50;;;;;;;;5096113;28;8836;-68
2024/03/17 15:57:35;;;;;;;;;24.50;21.50;;;;;;;;5093029;28;8788;-66
2024/03/17 16:00:01;;;;;;;;;24.25;23.50;;;;;;;;5093254;28;8768;-66
2024/03/17 16:02:26;;;;;;;;;29.25;26.00;;;;;;;;5092817;28;8806;-68
2024/03/17 16:04:52;;;;;;;;;26.25;25.00;;;;;;;;5092603;28;8796;-75
2024/03/17 16:07:17;;;;;;;;;35.00;31.75;;;;;;;;5091552;28;8780;-75
2024/03/17 16:09:43;;;;;;;;;36.50;32.00;;;;;;;;5090210;28;8950;-86
2024/03/17 16:12:09;;;;;;;;;33.00;28.25;;;;;;;;5092020;28;8803;-76
2024/03/17 16:14:37;;;;;;;;;31.50;28.75;;;;;;;;5091925;28;8823;-75
2024/03/17 16:17:07;;;;;;;;;30.75;27.00;;;;;;;;5091791;28;11214;-74
2024/03/17 16:19:33;;;;;;;;;26.00;25.00;;;;;;;;5092139;28;11448;-74
2024/03/17 16:21:58;;;;;;;;;31.50;26.25;;;;;;;;5088262;28;11912;-74
2024/03/17 16:24:23;;;;;;;;;27.50;26.25;;;;;;;;5092307;28;8804;-77
2024/03/17 16:26:49;;;;;;;;;32.50;26.50;;;;;;;;5090006;28;8803;-75
2024/03/17 16:29:14;;;;;;;;;31.00;26.75;;;;;;;;5092379;28;8800;-76
2024/03/17 16:31:40;;;;;;;;;21.75;19.50;;;;;;;;5088882;28;8823;-77
2024/03/17 16:34:07;;;;;;;;;47.00;40.25;;;;;;;;5092336;28;8827;-75
2024/03/17 16:36:33;;;;;;;;;39.25;33.75;;;;;;;;5091637;28;11524;-78
2024/03/17 16:38:59;;;;;;;;;21.75;18.00;;;;;;;;5090543;28;11637;-77
2024/03/17 16:41:24;;;;;;;;;29.25;24.00;;;;;;;;5091796;28;11639;-74
2024/03/17 16:44:03;;;;;;;;;20.75;18.50;;;;;;;;5091517;28;8820;-76
2024/03/17 16:46:46;;;;;;;;;15.50;14.50;;;;;;;;5090089;28;8768;-76
2024/03/17 16:49:13;;;;;;;;;19.00;18.00;;;;;;;;5090217;28;12102;-76
2024/03/17 16:51:39;;;;;;;;;17.00;17.00;;;;;;;;5091456;28;11442;-76
2024/03/17 16:54:05;;;;;;;;;17.25;17.00;;;;;;;;5090706;28;11215;-76
2024/03/17 16:56:31;;;;;;;;;16.50;14.25;;;;;;;;5090157;28;8816;-76
2024/03/17 16:58:56;;;;;;;;;15.00;13.50;;;;;;;;5091218;28;11436;-73
2024/03/17 17:01:24;;;;;;;;;20.25;19.25;;;;;;;;5089499;28;11844;-74
2024/03/17 17:03:49;;;;;;;;;16.75;14.25;;;;;;;;5091148;28;8808;-75
2024/03/17 17:06:15;;;;;;;;;17.25;15.00;;;;;;;;5090172;28;11409;-74
2024/03/17 17:08:40;;;;;;;;;18.00;15.25;;;;;;;;5091235;28;8823;-74
2024/03/17 17:11:06;;;;;;;;;21.25;17.75;;;;;;;;5091112;28;8748;-76
2024/03/17 17:13:32;;;;;;;;;17.50;17.00;;;;;;;;5088503;28;8764;-75
2024/03/17 17:15:57;;;;;;;;;20.00;17.00;;;;;;;;5089936;28;11419;-75
2024/03/17 17:18:41;;;;;;;;;22.00;22.00;;;;;;;;5090123;28;8812;-74
2024/03/17 17:21:07;;;;;;;;;26.25;23.25;;;;;;;;5090231;28;8811;-74
2024/03/17 17:23:33;;;;;;;;;59.25;45.75;;;;;;;;5091395;28;11544;-75
2024/03/17 17:25:58;;;;;;;;;30.00;27.00;;;;;;;;5091427;28;8798;-75
2024/03/17 17:28:23;;;;;;;;;20.75;19.00;;;;;;;;5091526;28;8799;-78
2024/03/17 17:30:49;;;;;;;;;23.50;23.50;;;;;;;;5091578;28;8780;-77
2024/03/17 17:33:14;;;;;;;;;18.75;16.75;;;;;;;;5091306;28;8784;-76
2024/03/17 17:35:39;;;;;;;;;18.50;17.50;;;;;;;;5089635;28;8800;-77
2024/03/17 17:38:06;;;;;;;;;18.25;17.00;;;;;;;;5089799;28;8822;-76
2024/03/17 17:40:31;;;;;;;;;25.50;19.50;;;;;;;;5090830;28;8796;-74
2024/03/17 17:42:56;;;;;;;;;20.00;18.75;;;;;;;;5090844;28;11470;-73
2024/03/17 17:45:22;;;;;;;;;21.00;19.00;;;;;;;;5091195;28;8837;-74
2024/03/17 17:47:47;;;;;;;;;29.25;26.25;;;;;;;;5090963;28;9477;-75
2024/03/17 17:50:12;;;;;;;;;24.00;21.75;;;;;;;;5090914;28;8796;-76
2024/03/17 17:52:38;;;;;;;;;27.00;23.50;;;;;;;;5089613;28;9553;-76
2024/03/17 17:55:03;;;;;;;;;21.00;19.00;;;;;;;;5091531;28;8799;-72
2024/03/17 17:57:30;;;;;;;;;25.00;22.00;;;;;;;;5089495;28;8826;-75
2024/03/17 17:59:55;;;;;;;;;24.00;22.25;;;;;;;;5089549;28;8835;-73
2024/03/17 18:02:20;;;;;;;;;25.50;23.00;;;;;;;;5071272;28;11473;-73
2024/03/17 18:04:46;;;;;;;;;21.25;19.00;;;;;;;;5070305;28;8818;-70
2024/03/17 18:07:11;;;;;;;;;26.75;24.00;;;;;;;;5070472;28;8812;-71
2024/03/17 18:09:36;;;;;;;;;28.25;23.25;;;;;;;;5070320;28;8794;-68
2024/03/17 18:12:03;;;;;;;;;29.50;26.75;;;;;;;;5069589;28;8793;-71
2024/03/17 18:14:28;;;;;;;;;30.50;27.00;;;;;;;;5082029;28;8797;-71
2024/03/17 18:16:56;;;;;;;;;28.75;27.00;;;;;;;;5089871;28;11471;-70
2024/03/17 18:19:21;;;;;;;;;29.75;27.25;;;;;;;;5089317;28;8808;-71
2024/03/17 18:21:46;;;;;;;;;32.25;32.25;;;;;;;;5089551;28;11541;-71
2024/03/17 18:24:12;;;;;;;;;32.00;26.75;;;;;;;;5090287;28;8840;-71
2024/03/17 18:26:37;;;;;;;;;27.75;26.00;;;;;;;;5089963;28;9552;-71
2024/03/17 18:29:02;;;;;;;;;27.25;23.00;;;;;;;;5089837;28;8819;-73
2024/03/17 18:31:27;;;;;;;;;31.75;24.75;;;;;;;;5089551;28;8774;-74
2024/03/17 18:33:55;;;;;;;;;38.75;33.25;;;;;;;;5090086;28;8796;-72
2024/03/17 18:36:20;;;;;;;;;79.67;60.67;;;;;;;;5089903;28;8808;-73
2024/03/17 18:38:47;;;;;;;;;62.75;45.00;;;;;;;;5089796;28;8776;-74
2024/03/17 18:41:12;;;;;;;;;45.00;39.75;;;;;;;;5089895;28;8829;-73
2024/03/17 18:43:46;;;;;;;;;45.25;40.00;;;;;;;;5089592;28;11530;-74
2024/03/17 18:46:12;;;;;;;;;39.00;36.25;;;;;;;;5095755;28;8806;-70
2024/03/17 18:48:38;;;;;;;;;37.25;32.75;;;;;;;;5088538;28;11655;-70
2024/03/17 18:51:03;;;;;;;;;32.75;28.75;;;;;;;;5095597;28;11693;-73
2024/03/17 18:53:29;;;;;;;;;48.00;40.50;;;;;;;;5110273;28;8777;-73
2024/03/17 18:56:01;;;;;;;;;32.25;29.00;;;;;;;;5105931;28;8803;-78
2024/03/17 18:58:29;;;;;;;;;31.75;30.75;;;;;;;;5090000;28;9000;-74
2024/03/17 19:00:54;;;;;;;;;33.75;31.50;;;;;;;;5088310;28;11595;-73
2024/03/17 19:03:23;;;;;;;;;33.25;29.75;;;;;;;;5089796;28;11691;-73
2024/03/17 19:05:54;;;;;;;;;27.50;27.25;;;;;;;;5088983;28;8802;-72
2024/03/17 19:08:19;;;;;;;;;31.75;30.25;;;;;;;;5089870;28;11495;-72
2024/03/17 19:10:49;;;;;;;;;30.50;24.00;;;;;;;;5089722;28;11607;-71
2024/03/17 19:13:14;;;;;;;;;32.75;27.00;;;;;;;;5089862;28;8964;-71
2024/03/17 19:15:40;;;;;;;;;26.00;26.00;;;;;;;;5089501;28;11645;-72
2024/03/17 19:18:05;;;;;;;;;32.50;28.50;;;;;;;;5088967;28;8768;-69
2024/03/17 19:20:30;;;;;;;;;34.25;25.50;;;;;;;;5089733;28;8772;-70
2024/03/17 19:22:55;;;;;;;;;33.50;30.50;;;;;;;;5089345;28;9556;-70
2024/03/17 19:25:21;;;;;;;;;35.75;29.50;;;;;;;;5089364;28;8788;-72
2024/03/17 19:27:46;;;;;;;;;35.25;29.00;;;;;;;;5089628;28;8780;-70
2024/03/17 19:30:14;;;;;;;;;30.50;30.25;;;;;;;;5091126;28;8812;-70
2024/03/17 19:32:39;;;;;;;;;29.75;27.50;;;;;;;;5093204;28;8795;-71
2024/03/17 19:35:05;;;;;;;;;37.50;32.75;;;;;;;;5093224;28;11572;-80
2024/03/17 19:37:30;;;;;;;;;38.50;32.25;;;;;;;;5094415;28;8870;-70
2024/03/17 19:39:55;;;;;;;;;32.75;31.25;;;;;;;;5113611;27;9618;-71
2024/03/17 19:42:22;;;;;;;;;38.75;33.25;;;;;;;;5113114;28;8797;-70
2024/03/17 19:44:47;;;;;;;;;34.00;30.25;;;;;;;;5113403;28;8792;-71
2024/03/17 19:47:14;;;;;;;;;32.00;30.50;;;;;;;;5112430;27;11548;-72
2024/03/17 19:49:40;;;;;;;;;38.50;34.25;;;;;;;;5098389;28;9581;-73
2024/03/17 19:52:05;;;;;;;;;33.75;31.25;;;;;;;;5092876;28;11490;-76
2024/03/17 19:54:30;;;;;;;;;19.00;17.25;;;;;;;;5097832;22;8870;-69
2024/03/17 19:56:55;;;;;;;;;33.75;29.25;;;;;;;;5051618;28;8771;-67
2024/03/17 19:59:21;;;;;;;;;32.25;29.25;;;;;;;;5048107;28;8805;-69
2024/03/17 20:01:46;;;;;;;;;30.25;29.00;;;;;;;;5034671;28;8825;-71
2024/03/17 20:04:11;;;;;;;;;35.25;30.25;;;;;;;;5032877;28;8972;-69
2024/03/17 20:06:37;;;;;;;;;31.00;27.00;;;;;;;;5043629;28;8826;-67
2024/03/17 20:09:02;;;;;;;;;33.50;32.00;;;;;;;;5040467;28;8818;-69
2024/03/17 20:11:28;;;;;;;;;38.25;36.00;;;;;;;;5040753;28;9646;-69
2024/03/17 20:13:53;;;;;;;;;32.50;30.00;;;;;;;;5037841;28;8810;-68
2024/03/17 20:16:21;;;;;;;;;38.00;34.00;;;;;;;;5041248;28;8901;-68
2024/03/17 20:18:46;;;;;;;;;33.75;30.25;;;;;;;;5040870;28;8797;-68
2024/03/17 20:21:12;;;;;;;;;35.25;30.25;;;;;;;;5032389;28;11529;-68
2024/03/17 20:23:37;;;;;;;;;37.50;32.00;;;;;;;;5031146;28;8837;-68
2024/03/17 20:26:02;;;;;;;;;34.00;33.25;;;;;;;;5031219;28;8785;-68
2024/03/17 20:28:27;;;;;;;;;44.00;37.00;;;;;;;;5030973;28;8812;-68
2024/03/17 20:30:53;;;;;;;;;40.50;36.00;;;;;;;;5030650;28;8829;-68
2024/03/17 20:33:18;;;;;;;;;46.00;39.00;;;;;;;;5030853;28;8809;-68
2024/03/17 20:35:43;;;;;;;;;41.50;38.75;;;;;;;;5031182;28;9565;-69
2024/03/17 20:38:10;;;;;;;;;39.00;35.50;;;;;;;;5029425;28;8817;-70
2024/03/17 20:40:35;;;;;;;;;40.50;37.00;;;;;;;;5030774;28;8793;-68
2024/03/17 20:43:00;;;;;;;;;42.75;40.25;;;;;;;;5040016;28;12347;-69
2024/03/17 20:45:27;;;;;;;;;38.50;36.00;;;;;;;;5050817;28;8775;-72
2024/03/17 20:47:54;;;;;;;;;46.50;39.25;;;;;;;;5051057;28;8782;-71
2024/03/17 20:50:21;;;;;;;;;44.25;38.75;;;;;;;;5043330;28;11566;-70
2024/03/17 20:52:46;;;;;;;;;52.00;43.50;;;;;;;;5043893;28;11548;-71
2024/03/17 20:55:16;;;;;;;;;47.50;39.50;;;;;;;;5040416;28;11621;-70
2024/03/17 20:57:41;;;;;;;;;42.00;37.25;;;;;;;;5039176;28;8797;-70
2024/03/17 21:00:19;;;;;;;;;49.25;41.00;;;;;;;;5040553;28;11572;-70
2024/03/17 21:02:44;;;;;;;;;46.75;40.50;;;;;;;;5047286;28;8838;-70
2024/03/17 21:05:10;;;;;;;;;49.00;41.00;;;;;;;;5049942;28;11598;-70
2024/03/17 21:07:36;;;;;;;;;46.25;39.00;;;;;;;;5050307;28;8887;-71
2024/03/17 21:10:02;;;;;;;;;50.50;40.00;;;;;;;;5050250;28;8894;-70
2024/03/17 21:12:27;;;;;;;;;51.00;41.75;;;;;;;;5050187;28;11661;-71
2024/03/17 21:14:52;;;;;;;;;52.00;43.75;;;;;;;;5050139;28;8778;-70
2024/03/17 21:17:18;;;;;;;;;49.00;39.50;;;;;;;;5049954;28;8811;-70
2024/03/17 21:19:44;;;;;;;;;50.50;42.25;;;;;;;;5064803;28;8816;-71
2024/03/17 21:22:09;;;;;;;;;46.00;38.25;;;;;;;;5070285;28;8821;-70
2024/03/17 21:24:35;;;;;;;;;54.50;44.25;;;;;;;;5069808;28;8835;-71
2024/03/17 21:27:00;;;;;;;;;64.33;52.67;;;;;;;;5069866;28;8975;-70
2024/03/17 21:29:26;;;;;;;;;48.75;40.00;;;;;;;;5069632;28;8797;-70
2024/03/17 21:31:52;;;;;;;;;50.75;42.25;;;;;;;;5069585;28;8777;-69
2024/03/17 21:34:17;;;;;;;;;47.00;39.25;;;;;;;;5069437;28;8986;-69
2024/03/17 21:36:43;;;;;;;;;49.50;40.00;;;;;;;;5069615;28;11662;-69
2024/03/17 21:39:08;;;;;;;;;50.00;41.75;;;;;;;;5069739;28;8926;-69
2024/03/17 21:41:34;;;;;;;;;48.75;39.50;;;;;;;;5068233;28;8812;-69
2024/03/17 21:43:59;;;;;;;;;51.75;40.50;;;;;;;;5069443;28;8816;-69
2024/03/17 21:46:26;;;;;;;;;45.00;39.25;;;;;;;;5071198;28;11570;-69
2024/03/17 21:48:52;;;;;;;;;49.75;41.50;;;;;;;;5073217;28;8844;-69
2024/03/17 21:51:17;;;;;;;;;50.00;40.00;;;;;;;;5071623;28;12360;-69
2024/03/17 21:53:43;;;;;;;;;43.25;35.75;;;;;;;;5076754;22;8837;-69
2024/03/17 21:56:08;;;;;;;;;43.50;38.75;;;;;;;;5029460;28;8913;-69
2024/03/17 21:58:33;;;;;;;;;43.75;38.50;;;;;;;;5029568;28;8832;-69
2024/03/17 22:01:04;;;;;;;;;39.25;36.25;;;;;;;;5029669;28;8916;-68
2024/03/17 22:03:30;;;;;;;;;50.00;39.00;;;;;;;;5029159;28;8838;-69
2024/03/17 22:05:58;;;;;;;;;47.00;38.75;;;;;;;;5029270;28;11493;-69
2024/03/17 22:08:23;;;;;;;;;42.75;37.00;;;;;;;;5029557;28;8788;-70
2024/03/17 22:10:54;;;;;;;;;42.25;36.50;;;;;;;;5029154;28;11525;-69
2024/03/17 22:13:20;;;;;;;;;41.00;37.00;;;;;;;;5029168;28;9526;-69
2024/03/17 22:15:51;;;;;;;;;50.75;39.75;;;;;;;;5029204;28;11527;-72
2024/03/17 22:18:17;;;;;;;;;43.25;37.25;;;;;;;;5032560;28;11528;-72
2024/03/17 22:20:42;;;;;;;;;42.75;38.00;;;;;;;;5049188;28;11577;-71
2024/03/17 22:23:08;;;;;;;;;39.25;35.25;;;;;;;;5049176;28;9517;-67
2024/03/17 22:25:33;;;;;;;;;47.50;37.50;;;;;;;;5049243;28;8803;-68
2024/03/17 22:27:58;;;;;;;;;41.50;34.25;;;;;;;;5049170;28;9640;-67
2024/03/17 22:30:23;;;;;;;;;40.75;35.50;;;;;;;;5047733;28;8845;-67
2024/03/17 22:32:50;;;;;;;;;37.25;35.50;;;;;;;;5049142;28;8929;-67
2024/03/17 22:35:15;;;;;;;;;39.75;35.50;;;;;;;;5049101;28;8868;-70
2024/03/17 22:37:41;;;;;;;;;37.25;35.75;;;;;;;;5048987;28;11655;-67
2024/03/17 22:40:07;;;;;;;;;41.25;36.50;;;;;;;;5048926;28;8763;-67
2024/03/17 22:42:32;;;;;;;;;37.00;33.25;;;;;;;;5048857;28;8791;-70
2024/03/17 22:44:57;;;;;;;;;39.25;37.00;;;;;;;;5048854;28;8862;-66
2024/03/17 22:47:23;;;;;;;;;39.50;34.75;;;;;;;;5048749;28;8775;-68
2024/03/17 22:49:48;;;;;;;;;38.00;33.25;;;;;;;;5048738;28;8790;-68
2024/03/17 22:52:13;;;;;;;;;41.75;36.50;;;;;;;;5048923;28;8810;-66
2024/03/17 22:54:39;;;;;;;;;41.50;35.50;;;;;;;;5049074;28;8913;-67
2024/03/17 22:57:04;;;;;;;;;43.75;36.25;;;;;;;;5047561;28;8814;-68
2024/03/17 22:59:29;;;;;;;;;37.50;33.25;;;;;;;;5049171;28;9477;-67
2024/03/17 23:01:55;;;;;;;;;44.00;39.25;;;;;;;;5047415;28;8814;-67
2024/03/17 23:04:22;;;;;;;;;37.50;34.25;;;;;;;;5049285;28;8830;-66
2024/03/17 23:06:47;;;;;;;;;36.75;35.75;;;;;;;;5052838;28;9008;-67
2024/03/17 23:09:14;;;;;;;;;39.75;36.00;;;;;;;;5052753;28;11513;-67
2024/03/17 23:11:40;;;;;;;;;38.00;35.25;;;;;;;;5052946;28;8771;-67
2024/03/17 23:14:05;;;;;;;;;40.50;32.25;;;;;;;;5052770;28;12346;-66
